Impacts TAF Board
For situational awareness. Not to be used for flight planning purposes.
IDs:

KSEA - Seattle-Tacoma Intl, WA, US

Issued at 2051 UTC 02 Oct 2022
Updated at 2229 UTC 02 Oct 2022
Potential Impact None Slight Moderate High
Time<<03/11Z 03/12Z 03/13Z 03/14Z 03/15Z 03/16Z 03/17Z 03/18Z 03/19Z 03/20Z 03/21Z 03/22Z 03/23Z>>
Type PRVL PRVL PRVL PRVL PRVL PRVL PRVL PRVL PRVL PRVL PRVL PRVL PRVL
VIS >6 >6 >6 >6 >6 >6 >6 >6 >6 >6 >6 >6 >6
CIG -- -- -- -- -- -- -- -- -- -- -- -- --
Cover SKC SKC SKC SKC SKC SKC SKC SKC SKC SKC SKC SKC SKC
FltCat VFR VFR VFR VFR VFR VFR VFR VFR VFR VFR VFR VFR VFR
WX -- -- -- -- -- -- -- -- -- -- -- -- --
WDir VRB VRB VRB VRB VRB VRB VRB VRB VRB VRB 330 330 330
WSpd 0 0 0 0 0 0 0 0 0 0 4 4 4
WGst -- -- -- -- -- -- -- -- -- -- -- -- --
WSHgt -- -- -- -- -- -- -- -- -- -- -- -- --
WSDir -- -- -- -- -- -- -- -- -- -- -- -- --
WSSpd -- -- -- -- -- -- -- -- -- -- -- -- --
Raw TAF
KSEA 022051Z 0221/0324 01006KT 6SM HZ SKC
  FM030500 35004KT P6SM SKC
  FM031000 00000KT P6SM SKC
  FM032100 33004KT P6SM SKC


METAR Board
Radar Display
Forecast Discussion
For situational awareness. Not to be used for flight planning purposes.